Poa, Brazil
Current Conditions -  °F | °C
As of 4:00 PM on Thursday 29 Jan 2015 (Local Time) from SBGR Reporting Station
Broken Clouds Broken Clouds  
Wind Chill: 86°   Ceiling: 4000
Heat Index: 89°   Visibility: 6mi
Dew Point: 68°   Wind: 14mph
Humidity: 55%   Direction: 320°NW
Pressure: 29.97"   Gusts: 26mph
Location:  23.52°S, 46.35°W
Report Text: SBGR 291800Z 32012G23KT 9999 BKN040 30/20 Q1015
Loading
Personal Weather Stations






























Interactive Weather Map New forecast layout! Learn more

10-Day Weather Forecast

Advertisements
Track Severe Weather on mobile